createdAt,value
2018-07-25T00:01:19.670Z,44.61
2018-07-25T00:03:53.342Z,45.01
2018-07-25T00:06:26.995Z,45.39
2018-07-25T00:09:00.692Z,45.10
2018-07-25T00:11:34.350Z,45.52
2018-07-25T00:14:08.058Z,45.01
2018-07-25T00:16:41.765Z,45.37
2018-07-25T00:19:15.492Z,45.21
2018-07-25T00:21:49.145Z,45.52
2018-07-25T00:24:22.810Z,45.60
2018-07-25T00:26:56.457Z,45.19
2018-07-25T00:29:30.145Z,45.93
2018-07-25T00:32:03.802Z,45.96
2018-07-25T00:34:37.562Z,45.34
2018-07-25T00:37:11.187Z,45.27
2018-07-25T00:39:44.993Z,45.63
2018-07-25T00:42:18.640Z,45.59
2018-07-25T00:44:52.310Z,45.44
2018-07-25T00:47:25.949Z,45.95
2018-07-25T00:49:59.625Z,45.77
2018-07-25T00:52:33.345Z,45.80
2018-07-25T00:55:07.928Z,45.79
2018-07-25T00:57:41.639Z,45.57
2018-07-25T01:00:15.289Z,45.66
2018-07-25T01:02:49.783Z,45.81
2018-07-25T01:05:23.505Z,45.74
2018-07-25T01:07:57.176Z,45.29
2018-07-25T01:10:30.858Z,45.94
2018-07-25T01:13:04.519Z,45.65
2018-07-25T01:15:38.385Z,46.32
2018-07-25T01:18:12.006Z,46.30
2018-07-25T01:20:45.707Z,46.43
2018-07-25T01:23:19.355Z,46.46
2018-07-25T01:25:53.003Z,46.23
2018-07-25T01:28:26.699Z,45.94
2018-07-25T01:31:00.337Z,45.97
2018-07-25T01:33:33.955Z,45.85
2018-07-25T01:36:07.686Z,45.75
2018-07-25T01:38:41.316Z,45.64
2018-07-25T01:41:15.073Z,46.04
2018-07-25T01:43:48.941Z,46.20
2018-07-25T01:46:22.575Z,45.96
2018-07-25T01:48:56.289Z,46.17
2018-07-25T01:51:29.927Z,46.63
2018-07-25T01:54:03.574Z,46.69
2018-07-25T01:56:37.498Z,46.72
2018-07-25T01:59:11.120Z,46.68
2018-07-25T02:01:44.766Z,46.47
2018-07-25T02:04:18.415Z,46.50
2018-07-25T02:06:52.107Z,46.33
2018-07-25T02:09:25.788Z,46.62
2018-07-25T02:11:59.470Z,46.58
2018-07-25T02:14:33.139Z,46.72
2018-07-25T02:17:06.843Z,46.96
2018-07-25T02:19:40.599Z,46.65
2018-07-25T02:22:14.248Z,46.66
2018-07-25T02:24:47.955Z,46.60
2018-07-25T02:27:21.600Z,46.92
2018-07-25T02:29:55.258Z,47.05
2018-07-25T02:32:28.882Z,46.87
2018-07-25T02:35:03.094Z,47.19
2018-07-25T02:37:36.836Z,47.16
2018-07-25T02:40:10.536Z,47.29
2018-07-25T02:42:44.247Z,47.16
2018-07-25T02:45:17.938Z,47.71
2018-07-25T02:47:51.656Z,47.70
2018-07-25T02:50:25.335Z,47.49
2018-07-25T02:52:58.919Z,47.44
2018-07-25T02:55:32.588Z,47.92
2018-07-25T02:58:06.393Z,47.86
2018-07-25T03:00:40.080Z,47.79
2018-07-25T03:03:13.762Z,48.27
2018-07-25T03:05:47.375Z,48.34
2018-07-25T03:08:21.076Z,48.92
2018-07-25T03:10:55.617Z,49.19
2018-07-25T03:13:29.248Z,49.93
2018-07-25T03:16:05.235Z,50.32
2018-07-25T03:18:38.976Z,50.05
2018-07-25T03:21:12.639Z,50.50
2018-07-25T03:23:46.397Z,50.53
2018-07-25T03:26:20.170Z,50.46
2018-07-25T03:28:53.811Z,50.12
2018-07-25T03:31:27.588Z,50.71
2018-07-25T03:34:01.218Z,50.55
2018-07-25T03:36:34.846Z,51.47
2018-07-25T03:39:08.654Z,51.87
2018-07-25T03:41:42.380Z,50.85
2018-07-25T03:44:16.080Z,50.87
2018-07-25T03:46:49.770Z,50.72
2018-07-25T03:49:23.420Z,51.10
2018-07-25T03:52:01.022Z,51.61
2018-07-25T03:54:35.924Z,51.21
2018-07-25T03:57:09.635Z,50.38
2018-07-25T03:59:43.327Z,50.16
2018-07-25T04:02:17.054Z,49.53
2018-07-25T04:04:50.739Z,48.85
2018-07-25T04:07:24.673Z,48.75
2018-07-25T04:09:58.424Z,49.11
2018-07-25T04:12:32.496Z,50.77
2018-07-25T04:15:07.409Z,51.12
2018-07-25T04:17:48.870Z,51.92
2018-07-25T04:20:22.602Z,51.90
2018-07-25T04:22:56.276Z,52.68
2018-07-25T04:25:29.912Z,52.77
2018-07-25T04:28:03.571Z,52.93
2018-07-25T04:30:38.005Z,52.67
2018-07-25T04:33:11.752Z,53.01
2018-07-25T04:35:46.316Z,52.52
2018-07-25T04:38:20.015Z,53.04
2018-07-25T04:40:53.738Z,52.95
2018-07-25T04:43:27.416Z,52.99
2018-07-25T04:46:01.244Z,53.19
2018-07-25T04:48:34.891Z,53.15
2018-07-25T04:51:08.914Z,53.07
2018-07-25T04:53:43.554Z,53.51
2018-07-25T04:56:17.302Z,53.35
2018-07-25T04:58:51.204Z,53.99
2018-07-25T05:01:24.900Z,54.19
2018-07-25T05:03:58.631Z,54.57
2018-07-25T05:06:32.384Z,54.59
2018-07-25T05:09:08.488Z,54.19
2018-07-25T05:11:42.157Z,54.29
2018-07-25T05:14:15.880Z,53.88
2018-07-25T05:16:50.269Z,53.94
2018-07-25T05:19:24.043Z,53.98
2018-07-25T05:21:57.835Z,54.13
2018-07-25T05:24:31.574Z,54.02
2018-07-25T05:27:05.258Z,54.06
2018-07-25T05:29:39.165Z,54.17
2018-07-25T05:32:12.966Z,53.71
2018-07-25T05:34:46.694Z,53.73
2018-07-25T05:37:20.475Z,53.39
2018-07-25T05:39:54.314Z,52.86
2018-07-25T05:42:27.997Z,53.12
2018-07-25T05:45:06.726Z,53.13
2018-07-25T05:47:40.445Z,52.67
2018-07-25T05:50:14.255Z,52.73
2018-07-25T05:52:47.938Z,52.52
2018-07-25T05:55:21.692Z,52.09
2018-07-25T05:57:55.437Z,52.16
2018-07-25T06:00:29.369Z,51.78
2018-07-25T06:03:03.313Z,51.44
2018-07-25T06:05:36.966Z,51.54
2018-07-25T06:08:10.747Z,51.44
2018-07-25T06:10:44.497Z,51.24
2018-07-25T06:13:18.279Z,51.34
2018-07-25T06:15:52.016Z,50.99
2018-07-25T06:18:25.800Z,51.32
2018-07-25T06:20:59.617Z,51.65
2018-07-25T06:23:33.325Z,51.71
2018-07-25T06:26:07.207Z,51.54
2018-07-25T06:28:40.989Z,51.55
2018-07-25T06:31:14.859Z,51.09
2018-07-25T06:33:48.601Z,51.24
2018-07-25T06:36:22.362Z,50.78
2018-07-25T06:38:56.094Z,50.54
2018-07-25T06:41:29.887Z,50.92
2018-07-25T06:44:03.658Z,50.90
2018-07-25T06:46:37.489Z,50.63
2018-07-25T06:49:11.260Z,50.21
2018-07-25T06:51:45.196Z,50.34
2018-07-25T06:54:19.094Z,50.07
2018-07-25T06:56:52.783Z,50.23
2018-07-25T06:59:26.687Z,49.87
2018-07-25T07:02:01.253Z,49.59
2018-07-25T07:04:36.007Z,49.44
2018-07-25T07:07:15.463Z,49.30
2018-07-25T07:09:49.251Z,49.63
2018-07-25T07:12:23.951Z,49.28
2018-07-25T07:14:57.598Z,49.12
2018-07-25T07:17:31.431Z,49.23
2018-07-25T07:20:09.667Z,49.18
2018-07-25T07:22:43.438Z,49.40
2018-07-25T07:25:17.318Z,49.26
2018-07-25T07:27:52.109Z,48.95
2018-07-25T07:30:26.288Z,49.12
2018-07-25T07:33:00.902Z,49.12
2018-07-25T07:35:34.814Z,48.88
2018-07-25T07:38:08.466Z,48.99
2018-07-25T07:40:42.578Z,48.94
2018-07-25T07:43:16.337Z,48.72
2018-07-25T07:45:50.127Z,48.60
2018-07-25T07:48:23.849Z,48.67
2018-07-25T07:50:58.319Z,48.52
2018-07-25T07:53:34.063Z,48.91
2018-07-25T07:56:08.377Z,48.85
2018-07-25T07:58:42.135Z,48.49
2018-07-25T08:01:15.772Z,48.87
2018-07-25T08:03:49.423Z,48.46
2018-07-25T08:06:24.891Z,48.53
2018-07-25T08:08:58.706Z,48.42
2018-07-25T08:11:33.887Z,48.38
2018-07-25T08:14:07.647Z,48.62
2018-07-25T08:16:41.458Z,48.53
2018-07-25T08:19:15.200Z,48.37
2018-07-25T08:21:48.931Z,48.55
2018-07-25T08:24:22.685Z,48.69
2018-07-25T08:26:56.425Z,48.74
2018-07-25T08:29:30.161Z,48.35
2018-07-25T08:32:03.858Z,48.41
2018-07-25T08:34:37.786Z,48.32
2018-07-25T08:37:11.571Z,48.46
2018-07-25T08:39:45.456Z,49.46
2018-07-25T08:42:19.941Z,49.26
2018-07-25T08:44:53.670Z,49.99
2018-07-25T08:47:27.488Z,49.79
2018-07-25T08:50:06.861Z,49.62
2018-07-25T08:52:41.773Z,49.35
2018-07-25T08:55:15.643Z,50.29
2018-07-25T08:57:51.102Z,50.21
2018-07-25T09:00:24.931Z,50.05
2018-07-25T09:02:58.749Z,49.83
2018-07-25T09:05:32.414Z,49.65
2018-07-25T09:08:06.145Z,48.96
2018-07-25T09:10:39.934Z,49.32
2018-07-25T09:13:13.610Z,49.28
2018-07-25T09:15:47.263Z,48.96
2018-07-25T09:18:20.934Z,49.12
2018-07-25T09:20:55.314Z,49.75
2018-07-25T09:23:28.990Z,49.34
2018-07-25T09:26:02.656Z,49.33
2018-07-25T09:28:36.362Z,49.65
2018-07-25T09:31:10.167Z,49.70
2018-07-25T09:33:44.012Z,49.63
2018-07-25T09:36:17.792Z,49.80
2018-07-25T09:38:53.680Z,50.21
2018-07-25T09:41:27.513Z,50.23
2018-07-25T09:44:02.227Z,50.06
2018-07-25T09:46:36.024Z,49.57
2018-07-25T09:49:09.888Z,49.64
2018-07-25T09:51:43.929Z,49.61
2018-07-25T09:54:17.804Z,49.68
2018-07-25T09:56:51.533Z,49.97
2018-07-25T09:59:25.445Z,50.58
2018-07-25T10:01:59.893Z,50.01
2018-07-25T10:04:33.679Z,50.25
2018-07-25T10:07:07.414Z,49.74
2018-07-25T10:09:41.164Z,50.53
2018-07-25T10:12:14.875Z,50.47
2018-07-25T10:14:48.742Z,50.14
2018-07-25T10:17:22.590Z,50.14
2018-07-25T10:19:56.381Z,49.78
2018-07-25T10:22:30.244Z,49.55
2018-07-25T10:25:11.276Z,49.32
2018-07-25T10:27:45.224Z,49.76
2018-07-25T10:30:19.127Z,49.65
2018-07-25T10:32:53.888Z,49.72
2018-07-25T10:35:27.687Z,49.80
2018-07-25T10:38:01.833Z,50.04
2018-07-25T10:40:35.630Z,50.08
2018-07-25T10:43:16.594Z,50.75
2018-07-25T10:45:50.414Z,50.80
2018-07-25T10:48:24.327Z,51.05
2018-07-25T10:50:58.070Z,50.45
2018-07-25T10:53:31.884Z,49.75
2018-07-25T10:56:05.754Z,50.66
2018-07-25T10:58:39.638Z,51.16
2018-07-25T11:01:13.479Z,51.12
2018-07-25T11:03:47.427Z,50.65
2018-07-25T11:06:25.293Z,51.69
2018-07-25T11:08:59.201Z,51.53
2018-07-25T11:11:33.032Z,51.58
2018-07-25T11:14:07.269Z,51.58
2018-07-25T11:16:41.318Z,51.22
2018-07-25T11:19:15.209Z,51.26
2018-07-25T11:21:49.190Z,51.58
2018-07-25T11:24:24.257Z,51.40
2018-07-25T11:26:58.371Z,51.51
2018-07-25T11:29:32.315Z,51.56
2018-07-25T11:32:16.027Z,51.73
2018-07-25T11:34:50.735Z,51.47
2018-07-25T11:37:24.519Z,51.91
2018-07-25T11:39:58.604Z,51.86
2018-07-25T11:42:32.335Z,51.25
2018-07-25T11:45:07.938Z,51.61
2018-07-25T11:47:41.723Z,51.84
2018-07-25T11:50:16.538Z,51.76
2018-07-25T11:52:50.179Z,51.32
2018-07-25T11:55:23.935Z,51.46
2018-07-25T11:57:58.333Z,51.20
2018-07-25T12:00:33.012Z,51.40
2018-07-25T12:03:09.190Z,51.52
2018-07-25T12:05:44.608Z,51.34
2018-07-25T12:08:18.478Z,51.51
2018-07-25T12:10:52.441Z,51.44
2018-07-25T12:13:26.405Z,51.45
2018-07-25T12:16:00.248Z,51.31
2018-07-25T12:18:34.957Z,51.25
2018-07-25T12:21:09.556Z,51.12
2018-07-25T12:23:43.449Z,50.78
2018-07-25T12:28:51.415Z,50.83
2018-07-25T12:31:25.046Z,50.90
2018-07-25T12:33:58.817Z,50.86
2018-07-25T12:36:32.476Z,50.96
2018-07-25T12:39:09.450Z,50.83
2018-07-25T12:41:43.238Z,51.05
2018-07-25T12:44:16.806Z,50.57
2018-07-25T12:46:50.495Z,50.66
2018-07-25T12:49:24.145Z,50.31
2018-07-25T12:51:57.858Z,50.51
2018-07-25T12:54:31.500Z,50.80
2018-07-25T12:57:05.251Z,50.54
2018-07-25T12:59:39.054Z,50.41
2018-07-25T13:02:13.154Z,50.49
2018-07-25T13:04:46.911Z,50.63
2018-07-25T13:07:20.717Z,50.54
2018-07-25T13:09:54.367Z,50.67
2018-07-25T13:12:28.034Z,50.56
2018-07-25T13:15:03.693Z,50.26
2018-07-25T13:17:37.414Z,50.25
2018-07-25T13:20:11.066Z,50.63
2018-07-25T13:22:44.866Z,50.70
2018-07-25T13:25:18.599Z,50.48
2018-07-25T13:27:52.661Z,50.84
2018-07-25T13:30:26.303Z,51.01
2018-07-25T13:32:59.944Z,51.04
2018-07-25T13:35:33.576Z,51.18
2018-07-25T13:38:07.301Z,50.97
2018-07-25T13:40:40.938Z,50.85
2018-07-25T13:43:14.593Z,50.75
2018-07-25T13:45:48.458Z,51.37
2018-07-25T13:48:22.301Z,51.32
2018-07-25T13:50:56.148Z,51.23
2018-07-25T13:53:29.982Z,51.15
2018-07-25T13:56:03.911Z,51.02
2018-07-25T13:58:37.602Z,51.26
2018-07-25T14:01:11.503Z,51.41
2018-07-25T14:24:17.266Z,51.26
2018-07-25T14:26:51.292Z,51.42
2018-07-25T14:29:25.152Z,51.18
2018-07-25T14:31:59.974Z,50.98
2018-07-25T14:34:33.987Z,50.85
2018-07-25T14:37:08.686Z,50.98
2018-07-25T14:39:42.480Z,50.77
2018-07-25T14:42:16.170Z,50.91
2018-07-25T14:44:50.455Z,50.69
2018-07-25T14:47:27.793Z,50.97
2018-07-25T14:50:05.086Z,50.72
2018-07-25T14:52:38.827Z,50.66
2018-07-25T14:55:12.568Z,50.68
2018-07-25T15:00:39.050Z,50.27
2018-07-25T15:03:13.647Z,50.29
2018-07-25T15:05:47.487Z,50.12
2018-07-25T15:08:21.363Z,49.77
2018-07-25T15:10:55.249Z,50.45
2018-07-25T15:13:29.591Z,50.51
2018-07-25T15:16:03.480Z,50.20
2018-07-25T15:18:37.319Z,49.34
2018-07-25T15:21:13.008Z,49.23
2018-07-25T15:23:57.705Z,49.26
2018-07-25T15:26:31.495Z,48.99
2018-07-25T15:29:05.320Z,48.46
2018-07-25T15:31:39.735Z,48.18
2018-07-25T15:34:13.859Z,48.19
2018-07-25T15:36:50.508Z,47.60
2018-07-25T15:39:26.161Z,47.48
2018-07-25T15:42:00.320Z,47.25
2018-07-25T15:44:34.980Z,47.53
2018-07-25T15:47:08.723Z,47.34
2018-07-25T15:49:49.013Z,47.32
2018-07-25T15:52:22.722Z,46.79
2018-07-25T15:54:56.483Z,46.93
2018-07-25T15:57:30.218Z,47.33
2018-07-25T16:00:08.188Z,47.06
2018-07-25T16:02:41.914Z,48.06
2018-07-25T16:05:16.162Z,48.50
2018-07-25T16:07:49.910Z,48.88
2018-07-25T16:10:23.640Z,48.79
2018-07-25T16:12:57.331Z,48.76
2018-07-25T16:15:31.175Z,48.61
2018-07-25T16:18:04.907Z,48.66
2018-07-25T16:20:38.607Z,48.35
2018-07-25T16:23:12.397Z,48.64
2018-07-25T16:25:46.105Z,49.01
2018-07-25T16:28:19.733Z,48.78
2018-07-25T16:30:54.728Z,49.00
2018-07-25T16:33:28.562Z,49.02
2018-07-25T16:36:02.286Z,49.10
2018-07-25T16:38:36.347Z,48.37
2018-07-25T16:41:10.413Z,48.70
2018-07-25T16:43:45.443Z,48.89
2018-07-25T16:46:19.414Z,48.86
2018-07-25T16:48:53.444Z,48.37
2018-07-25T16:51:27.255Z,47.54
2018-07-25T16:54:00.958Z,47.44
2018-07-25T16:56:34.819Z,46.94
2018-07-25T16:59:08.587Z,47.16
2018-07-25T17:01:42.312Z,47.12
2018-07-25T17:04:17.210Z,47.50
2018-07-25T17:06:51.131Z,46.73
2018-07-25T17:09:24.803Z,45.38
2018-07-25T17:11:58.570Z,44.76
2018-07-25T17:14:32.315Z,44.80
2018-07-25T17:17:06.328Z,45.04
2018-07-25T17:19:39.942Z,45.21
2018-07-25T17:22:13.739Z,45.21
2018-07-25T17:24:47.573Z,43.58
2018-07-25T17:27:21.335Z,44.42
2018-07-25T17:29:54.959Z,43.48
2018-07-25T17:32:28.655Z,43.62
2018-07-25T17:35:05.545Z,43.66
2018-07-25T17:37:39.194Z,43.58
2018-07-25T17:40:13.063Z,43.63
2018-07-25T17:42:46.680Z,44.04
2018-07-25T17:45:20.359Z,43.59
2018-07-25T17:47:54.394Z,44.19
2018-07-25T17:50:28.133Z,44.32
2018-07-25T17:53:01.896Z,44.50
2018-07-25T17:55:35.832Z,44.66
2018-07-25T17:58:09.447Z,44.67
2018-07-25T18:00:43.264Z,44.56
2018-07-25T18:03:17.011Z,44.77
2018-07-25T18:05:50.794Z,44.64
2018-07-25T18:08:24.447Z,45.30
2018-07-25T18:10:58.320Z,45.40
2018-07-25T18:13:37.254Z,45.14
2018-07-25T18:16:11.104Z,44.92
2018-07-25T18:18:44.875Z,44.99
2018-07-25T18:21:18.591Z,45.55
2018-07-25T18:23:52.329Z,45.18
2018-07-25T18:26:26.297Z,45.22
2018-07-25T18:29:00.043Z,45.02
2018-07-25T18:31:34.156Z,45.33
2018-07-25T18:34:08.019Z,45.12
2018-07-25T18:36:41.791Z,45.59
2018-07-25T18:39:15.499Z,45.47
2018-07-25T18:41:49.162Z,45.68
2018-07-25T18:44:22.883Z,46.00
2018-07-25T18:46:56.762Z,46.19
2018-07-25T18:49:30.525Z,46.08
2018-07-25T18:52:04.457Z,46.28
2018-07-25T18:54:38.339Z,46.17
2018-07-25T18:57:12.256Z,46.48
2018-07-25T18:59:46.011Z,46.53
2018-07-25T19:02:19.904Z,46.53
2018-07-25T19:04:53.534Z,46.60
2018-07-25T19:07:27.861Z,46.61
2018-07-25T19:10:05.113Z,46.12
2018-07-25T19:12:39.166Z,45.03
2018-07-25T19:15:18.104Z,44.67
2018-07-25T19:20:26.337Z,43.02
2018-07-25T19:23:00.119Z,43.20
2018-07-25T19:25:33.839Z,43.53
2018-07-25T19:28:07.438Z,43.12
2018-07-25T19:30:41.130Z,42.42
2018-07-25T19:33:14.810Z,42.40
2018-07-25T19:35:48.528Z,42.37
2018-07-25T19:38:22.369Z,43.12
2018-07-25T19:41:06.060Z,43.39
2018-07-25T19:43:49.701Z,43.31
2018-07-25T19:46:33.337Z,43.50
2018-07-25T19:49:17.011Z,43.31
2018-07-25T19:52:00.681Z,43.24
2018-07-25T19:54:44.331Z,43.47
2018-07-25T19:57:27.934Z,44.06
2018-07-25T20:00:16.381Z,43.55
2018-07-25T20:02:55.257Z,43.84
2018-07-25T20:05:38.914Z,43.62
2018-07-25T20:08:22.549Z,43.59
2018-07-25T20:11:06.543Z,43.66
2018-07-25T20:13:55.391Z,43.95
2018-07-25T20:16:39.285Z,43.24
2018-07-25T20:19:23.121Z,43.43
2018-07-25T20:22:06.790Z,43.10
2018-07-25T20:24:50.442Z,43.19
2018-07-25T20:27:34.392Z,43.04
2018-07-25T20:30:18.127Z,43.13
2018-07-25T20:33:01.915Z,43.37
2018-07-25T20:35:45.736Z,43.22
2018-07-25T20:38:29.469Z,43.11
2018-07-25T20:41:13.163Z,43.37
2018-07-25T20:43:56.803Z,43.34
2018-07-25T20:46:40.514Z,43.37
2018-07-25T20:49:24.222Z,43.25
2018-07-25T20:52:07.826Z,43.75
2018-07-25T20:54:51.431Z,43.32
2018-07-25T20:57:35.064Z,42.95
2018-07-25T21:00:22.972Z,43.10
2018-07-25T21:03:07.653Z,42.55
2018-07-25T21:05:51.276Z,42.89
2018-07-25T21:08:34.946Z,42.75
2018-07-25T21:11:18.522Z,43.03
2018-07-25T21:14:02.147Z,42.65
2018-07-25T21:16:45.726Z,43.44
2018-07-25T21:19:29.409Z,43.13
2018-07-25T21:22:13.322Z,42.97
2018-07-25T21:24:57.020Z,43.37
2018-07-25T21:27:40.676Z,43.28
2018-07-25T21:30:24.504Z,43.38
2018-07-25T21:33:08.183Z,43.12
2018-07-25T21:35:51.808Z,43.25
2018-07-25T21:38:35.478Z,43.70
2018-07-25T21:41:19.606Z,43.48
2018-07-25T21:44:03.872Z,43.16
2018-07-25T21:46:48.094Z,43.75
2018-07-25T21:49:31.788Z,43.14
2018-07-25T21:52:15.446Z,43.45
2018-07-25T21:54:59.082Z,43.49
2018-07-25T21:57:42.891Z,43.78
2018-07-25T22:00:26.517Z,43.91
2018-07-25T22:03:10.342Z,43.85
2018-07-25T22:05:54.119Z,43.93
2018-07-25T22:08:37.782Z,43.88
2018-07-25T22:11:21.507Z,44.01
2018-07-25T22:14:05.206Z,44.11
2018-07-25T22:16:48.851Z,43.75
2018-07-25T22:19:32.493Z,43.76
2018-07-25T22:22:16.271Z,44.52
2018-07-25T22:24:59.933Z,44.18
2018-07-25T22:27:43.697Z,44.62
2018-07-25T22:30:27.468Z,44.65
2018-07-25T22:33:11.168Z,44.26
2018-07-25T22:35:54.839Z,44.48
2018-07-25T22:38:38.518Z,44.37
2018-07-25T22:41:22.183Z,44.16
2018-07-25T22:44:06.031Z,44.66
2018-07-25T22:46:49.686Z,44.89
2018-07-25T22:49:33.350Z,44.55
2018-07-25T22:52:17.035Z,44.66
2018-07-25T22:55:01.959Z,44.94
2018-07-25T22:57:45.582Z,44.45
2018-07-25T23:00:29.263Z,45.03
2018-07-25T23:03:12.895Z,44.82
2018-07-25T23:05:56.595Z,44.99
2018-07-25T23:08:40.298Z,44.88
2018-07-25T23:11:23.938Z,44.58
2018-07-25T23:14:07.625Z,45.02
2018-07-25T23:16:51.288Z,44.97
2018-07-25T23:19:34.998Z,44.97
2018-07-25T23:22:18.591Z,45.27
2018-07-25T23:25:03.453Z,45.01
2018-07-25T23:27:47.103Z,45.41
2018-07-25T23:30:30.814Z,45.04
2018-07-25T23:33:14.438Z,45.41
2018-07-25T23:35:58.072Z,45.31
2018-07-25T23:38:41.766Z,45.28
2018-07-25T23:41:25.389Z,45.35
2018-07-25T23:44:09.175Z,45.60
2018-07-25T23:46:52.799Z,45.43
2018-07-25T23:49:36.539Z,45.17
2018-07-25T23:52:20.212Z,45.55
2018-07-25T23:55:06.203Z,45.44
2018-07-25T23:57:49.893Z,45.30
